createdAt,value
2019-02-21T00:01:47.745Z,7.00
2019-02-21T00:03:54.005Z,8.93
2019-02-21T00:06:00.196Z,6.60
2019-02-21T00:08:06.615Z,9.60
2019-02-21T00:10:12.766Z,11.43
2019-02-21T00:12:19.150Z,9.18
2019-02-21T00:14:25.403Z,5.70
2019-02-21T00:16:31.754Z,6.90
2019-02-21T00:18:38.104Z,6.58
2019-02-21T00:20:44.368Z,5.62
2019-02-21T00:22:50.634Z,8.58
2019-02-21T00:24:56.874Z,6.55
2019-02-21T00:27:03.552Z,8.30
2019-02-21T00:29:09.637Z,7.42
2019-02-21T00:31:15.799Z,8.73
2019-02-21T00:33:22.066Z,9.70
2019-02-21T00:35:29.538Z,10.28
2019-02-21T00:37:35.601Z,9.85
2019-02-21T00:39:41.769Z,16.32
2019-02-21T00:41:47.936Z,8.38
2019-02-21T00:43:54.008Z,9.05
2019-02-21T00:46:01.087Z,11.78
2019-02-21T00:48:07.234Z,11.30
2019-02-21T00:50:13.360Z,12.00
2019-02-21T00:52:19.549Z,12.82
2019-02-21T00:54:25.691Z,12.60
2019-02-21T00:56:31.788Z,14.47
2019-02-21T00:58:38.975Z,15.93
2019-02-21T01:00:46.714Z,14.53
2019-02-21T01:02:52.846Z,14.45
2019-02-21T01:04:59.052Z,12.10
2019-02-21T01:07:05.277Z,12.47
2019-02-21T01:09:11.366Z,12.10
2019-02-21T01:11:17.483Z,11.88
2019-02-21T01:13:23.579Z,15.23
2019-02-21T01:15:29.668Z,12.47
2019-02-21T01:17:35.771Z,13.00
2019-02-21T01:19:41.857Z,11.75
2019-02-21T01:21:48.012Z,11.88
2019-02-21T01:23:54.110Z,19.42
2019-02-21T01:26:00.198Z,20.48
2019-02-21T01:28:06.376Z,12.90
2019-02-21T01:30:12.553Z,14.07
2019-02-21T01:32:18.729Z,12.18
2019-02-21T01:34:24.805Z,11.68
2019-02-21T01:36:30.921Z,12.47
2019-02-21T01:38:37.001Z,16.40
2019-02-21T01:40:43.099Z,14.75
2019-02-21T01:42:49.204Z,14.70
2019-02-21T01:44:55.359Z,14.63
2019-02-21T01:47:01.478Z,15.93
2019-02-21T01:49:07.565Z,12.15
2019-02-21T01:51:13.638Z,14.15
2019-02-21T01:53:19.719Z,17.00
2019-02-21T01:55:25.821Z,11.68
2019-02-21T01:57:31.907Z,18.70
2019-02-21T01:59:38.148Z,18.90
2019-02-21T02:01:44.444Z,13.88
2019-02-21T02:03:50.660Z,11.22
2019-02-21T02:05:56.759Z,14.00
2019-02-21T02:08:02.873Z,17.73
2019-02-21T02:10:10.193Z,10.23
2019-02-21T02:12:16.350Z,15.88
2019-02-21T02:14:22.527Z,10.70
2019-02-21T02:16:28.609Z,15.18
2019-02-21T02:18:34.766Z,10.95
2019-02-21T02:20:40.953Z,16.50
2019-02-21T02:22:47.208Z,12.80
2019-02-21T02:24:53.296Z,11.08
2019-02-21T02:26:59.407Z,12.75
2019-02-21T02:29:05.498Z,11.55
2019-02-21T02:31:21.926Z,16.93
2019-02-21T02:33:19.528Z,18.45
2019-02-21T02:35:25.789Z,11.08
2019-02-21T02:37:31.922Z,15.75
2019-02-21T02:39:38.042Z,17.45
2019-02-21T02:41:45.726Z,16.85
2019-02-21T02:43:51.896Z,15.60
2019-02-21T02:45:58.007Z,13.78
2019-02-21T02:48:04.298Z,18.45
2019-02-21T02:50:10.385Z,16.00
2019-02-21T02:52:16.493Z,17.10
2019-02-21T02:54:22.604Z,21.12
2019-02-21T02:56:28.703Z,22.40
2019-02-21T02:58:34.928Z,24.02
2019-02-21T03:00:41.084Z,19.48
2019-02-21T03:02:47.160Z,20.08
2019-02-21T03:04:53.264Z,18.20
2019-02-21T03:07:08.072Z,18.37
2019-02-21T03:09:14.208Z,16.60
2019-02-21T03:11:20.364Z,12.68
2019-02-21T03:13:26.455Z,15.83
2019-02-21T03:15:32.549Z,23.00
2019-02-21T03:17:38.738Z,17.45
2019-02-21T03:19:44.812Z,15.95
2019-02-21T03:21:50.974Z,18.42
2019-02-21T03:23:57.209Z,17.90
2019-02-21T03:26:03.502Z,14.78
2019-02-21T03:28:09.855Z,15.43
2019-02-21T03:30:16.305Z,14.63
2019-02-21T03:32:22.795Z,16.27
2019-02-21T03:34:29.033Z,17.07
2019-02-21T03:36:35.511Z,16.32
2019-02-21T03:38:41.971Z,23.75
2019-02-21T03:40:48.166Z,18.65
2019-02-21T03:42:54.755Z,24.02
2019-02-21T03:45:01.114Z,17.75
2019-02-21T03:47:07.417Z,17.07
2019-02-21T03:49:13.750Z,16.65
2019-02-21T03:51:20.109Z,24.60
2019-02-21T03:53:26.332Z,20.88
2019-02-21T03:55:32.724Z,16.77
2019-02-21T03:57:39.066Z,20.55
2019-02-21T03:59:45.275Z,26.30
2019-02-21T04:01:51.680Z,20.62
2019-02-21T04:03:57.900Z,22.93
2019-02-21T04:06:04.196Z,20.12
2019-02-21T04:08:10.524Z,19.77
2019-02-21T04:10:17.020Z,21.95
2019-02-21T04:12:23.389Z,19.10
2019-02-21T04:14:29.720Z,22.52
2019-02-21T04:16:36.082Z,23.77
2019-02-21T04:18:42.293Z,26.42
2019-02-21T04:20:48.539Z,22.52
2019-02-21T04:22:54.772Z,26.65
2019-02-21T04:25:01.062Z,20.05
2019-02-21T04:27:07.378Z,20.68
2019-02-21T04:29:13.905Z,23.22
2019-02-21T04:31:20.082Z,27.17
2019-02-21T04:33:26.400Z,28.00
2019-02-21T04:35:32.759Z,34.98
2019-02-21T04:37:38.909Z,41.42
2019-02-21T04:39:45.176Z,41.37
2019-02-21T04:41:51.333Z,44.65
2019-02-21T04:43:57.637Z,40.98
2019-02-21T04:46:03.881Z,39.83
2019-02-21T04:48:10.042Z,42.08
2019-02-21T04:50:16.215Z,40.80
2019-02-21T04:52:22.471Z,40.50
2019-02-21T04:54:28.762Z,48.45
2019-02-21T04:56:36.001Z,48.02
2019-02-21T04:58:42.191Z,43.75
2019-02-21T05:00:48.344Z,44.25
2019-02-21T05:02:54.505Z,38.33
2019-02-21T05:05:00.972Z,31.20
2019-02-21T05:07:08.307Z,32.88
2019-02-21T05:09:14.534Z,36.73
2019-02-21T05:11:20.736Z,28.32
2019-02-21T05:13:26.902Z,39.30
2019-02-21T05:15:33.066Z,36.98
2019-02-21T05:17:39.389Z,35.92
2019-02-21T05:19:45.626Z,38.67
2019-02-21T05:21:51.919Z,31.87
2019-02-21T05:23:58.179Z,30.97
2019-02-21T05:26:04.800Z,32.88
2019-02-21T05:28:22.086Z,33.55
2019-02-21T05:30:28.609Z,35.52
2019-02-21T05:32:41.007Z,30.15
2019-02-21T05:34:54.988Z,27.32
2019-02-21T05:37:02.820Z,29.07
2019-02-21T05:39:22.732Z,32.30
2019-02-21T05:41:48.385Z,35.35
2019-02-21T05:44:08.089Z,26.60
2019-02-21T05:46:15.961Z,28.52
2019-02-21T05:48:27.939Z,33.73
2019-02-21T05:50:51.842Z,31.27
2019-02-21T05:53:05.434Z,31.30
2019-02-21T05:55:16.001Z,32.90
2019-02-21T05:57:32.895Z,32.40
2019-02-21T05:59:40.838Z,30.02
2019-02-21T06:02:00.663Z,39.00
2019-02-21T06:04:21.171Z,36.85
2019-02-21T06:06:37.879Z,34.43
2019-02-21T06:08:51.400Z,40.55
2019-02-21T06:11:06.426Z,33.83
2019-02-21T06:13:14.284Z,34.67
2019-02-21T06:15:22.091Z,36.83
2019-02-21T06:17:34.272Z,37.93
2019-02-21T06:19:45.001Z,49.85
2019-02-21T06:22:10.681Z,40.17
2019-02-21T06:24:15.433Z,41.05
2019-02-21T06:26:23.296Z,41.02
2019-02-21T06:28:31.163Z,42.30
2019-02-21T06:30:39.004Z,39.13
2019-02-21T06:32:45.166Z,57.67
2019-02-21T06:34:52.335Z,56.60
2019-02-21T06:36:58.776Z,44.38
2019-02-21T06:39:07.070Z,48.60
2019-02-21T06:41:13.234Z,45.20
2019-02-21T06:43:19.495Z,46.30
2019-02-21T06:45:25.638Z,55.65
2019-02-21T06:47:31.862Z,60.73
2019-02-21T06:49:38.201Z,45.92
2019-02-21T06:51:44.355Z,44.20
2019-02-21T06:53:52.996Z,39.60
2019-02-21T06:55:58.437Z,39.05
2019-02-21T06:58:04.848Z,42.35
2019-02-21T07:00:11.013Z,43.92
2019-02-21T07:02:17.212Z,41.35
2019-02-21T07:04:23.544Z,56.37
2019-02-21T07:06:32.273Z,53.80
2019-02-21T07:08:39.999Z,46.15
2019-02-21T07:10:46.325Z,46.85
2019-02-21T07:12:52.672Z,41.05
2019-02-21T07:14:58.856Z,47.80
2019-02-21T07:17:05.100Z,52.20
2019-02-21T07:19:11.253Z,44.98
2019-02-21T07:21:17.467Z,43.13
2019-02-21T07:23:23.732Z,45.28
2019-02-21T07:25:34.377Z,62.53
2019-02-21T07:27:40.567Z,51.45
2019-02-21T07:29:46.727Z,48.38
2019-02-21T07:31:53.078Z,40.48
2019-02-21T07:34:01.531Z,38.13
2019-02-21T07:36:07.330Z,37.45
2019-02-21T07:38:13.677Z,41.02
2019-02-21T07:40:20.524Z,46.55
2019-02-21T07:42:26.805Z,56.00
2019-02-21T07:44:33.036Z,57.40
2019-02-21T07:46:39.358Z,37.78
2019-02-21T07:48:45.590Z,33.60
2019-02-21T07:50:51.863Z,37.83
2019-02-21T07:53:02.325Z,36.53
2019-02-21T07:55:10.416Z,34.48
2019-02-21T07:57:16.221Z,32.40
2019-02-21T07:59:22.434Z,34.20
2019-02-21T08:01:28.707Z,34.78
2019-02-21T08:03:43.797Z,33.70
2019-02-21T08:05:42.958Z,29.60
2019-02-21T08:07:49.870Z,30.08
2019-02-21T08:09:56.245Z,33.85
2019-02-21T08:12:02.569Z,28.05
2019-02-21T08:14:08.731Z,31.30
2019-02-21T08:16:15.060Z,33.05
2019-02-21T08:18:21.235Z,30.72
2019-02-21T08:20:33.975Z,32.30
2019-02-21T08:22:35.705Z,25.25
2019-02-21T08:24:41.889Z,28.35
2019-02-21T08:26:48.053Z,28.55
2019-02-21T08:28:54.360Z,31.30
2019-02-21T08:31:00.519Z,29.70
2019-02-21T08:33:17.302Z,31.52
2019-02-21T08:35:23.480Z,28.62
2019-02-21T08:37:29.657Z,29.95
2019-02-21T08:39:36.022Z,30.68
2019-02-21T08:41:42.175Z,28.83
2019-02-21T08:43:48.445Z,26.10
2019-02-21T08:45:57.380Z,29.60
2019-02-21T08:48:02.499Z,35.35
2019-02-21T08:50:08.747Z,30.15
2019-02-21T08:52:15.054Z,30.40
2019-02-21T08:54:21.243Z,28.47
2019-02-21T08:56:29.877Z,28.95
2019-02-21T08:58:35.537Z,31.48
2019-02-21T09:00:41.840Z,27.75
2019-02-21T09:02:48.045Z,29.98
2019-02-21T09:04:54.195Z,30.37
2019-02-21T09:07:00.362Z,29.45
2019-02-21T09:09:07.013Z,30.17
2019-02-21T09:11:13.777Z,27.75
2019-02-21T09:13:20.052Z,32.23
2019-02-21T09:15:26.306Z,28.02
2019-02-21T09:17:32.473Z,28.62
2019-02-21T09:19:38.629Z,27.15
2019-02-21T09:21:44.967Z,29.02
2019-02-21T09:23:51.137Z,38.85
2019-02-21T09:25:57.493Z,32.55
2019-02-21T09:28:03.762Z,28.50
2019-02-21T09:30:21.111Z,28.80
2019-02-21T09:32:27.346Z,31.20
2019-02-21T09:34:33.533Z,34.58
2019-02-21T09:36:39.769Z,30.62
2019-02-21T09:38:45.911Z,29.35
2019-02-21T09:40:52.169Z,35.28
2019-02-21T09:42:58.405Z,38.58
2019-02-21T09:45:09.262Z,42.60
2019-02-21T09:47:14.860Z,38.17
2019-02-21T09:49:21.269Z,40.05
2019-02-21T09:51:27.431Z,43.55
2019-02-21T09:53:33.694Z,38.48
2019-02-21T09:55:39.857Z,37.75
2019-02-21T09:57:46.084Z,41.90
2019-02-21T09:59:52.355Z,39.27
2019-02-21T10:01:58.591Z,43.70
2019-02-21T10:04:04.789Z,36.30
2019-02-21T10:06:11.130Z,31.20
2019-02-21T10:08:17.357Z,33.00
2019-02-21T10:10:23.993Z,32.58
2019-02-21T10:12:30.257Z,29.77
2019-02-21T10:14:36.495Z,31.42
2019-02-21T10:16:42.719Z,31.97
2019-02-21T10:18:48.961Z,31.90
2019-02-21T10:20:55.193Z,28.50
2019-02-21T10:23:01.538Z,28.40
2019-02-21T10:25:24.062Z,31.02
2019-02-21T10:27:30.331Z,29.55
2019-02-21T10:29:36.488Z,29.02
2019-02-21T10:31:42.730Z,30.00
2019-02-21T10:33:49.959Z,28.38
2019-02-21T10:35:56.117Z,25.95
2019-02-21T10:38:02.442Z,25.50
2019-02-21T10:40:12.470Z,33.95
2019-02-21T10:42:18.670Z,25.75
2019-02-21T10:44:24.927Z,47.13
2019-02-21T10:46:31.154Z,25.20
2019-02-21T10:48:37.458Z,26.77
2019-02-21T10:50:43.727Z,23.75
2019-02-21T10:52:50.464Z,22.77
2019-02-21T10:54:56.705Z,21.23
2019-02-21T10:57:02.894Z,25.12
2019-02-21T10:59:09.363Z,23.00
2019-02-21T11:01:15.527Z,23.10
2019-02-21T11:03:21.779Z,26.05
2019-02-21T11:05:28.090Z,23.92
2019-02-21T11:07:34.305Z,25.00
2019-02-21T11:09:40.485Z,21.68
2019-02-21T11:11:46.678Z,22.87
2019-02-21T11:13:52.835Z,23.42
2019-02-21T11:15:59.119Z,28.07
2019-02-21T11:18:05.283Z,28.80
2019-02-21T11:20:15.942Z,28.27
2019-02-21T11:22:22.105Z,31.75
2019-02-21T11:24:28.347Z,28.25
2019-02-21T11:26:34.579Z,30.12
2019-02-21T11:28:40.751Z,29.48
2019-02-21T11:30:46.906Z,31.65
2019-02-21T11:32:53.141Z,28.55
2019-02-21T11:35:06.238Z,29.15
2019-02-21T11:37:07.461Z,32.15
2019-02-21T11:39:13.623Z,29.63
2019-02-21T11:41:19.807Z,29.00
2019-02-21T11:43:25.964Z,31.62
2019-02-21T11:45:32.131Z,33.40
2019-02-21T11:47:38.538Z,32.17
2019-02-21T11:49:45.639Z,33.02
2019-02-21T11:51:51.875Z,34.73
2019-02-21T11:53:59.111Z,37.23
2019-02-21T11:56:05.393Z,34.67
2019-02-21T11:58:11.757Z,30.92
2019-02-21T12:00:29.333Z,38.83
2019-02-21T12:02:38.892Z,35.80
2019-02-21T12:04:43.415Z,42.78
2019-02-21T12:06:49.591Z,39.33
2019-02-21T12:08:55.759Z,40.67
2019-02-21T12:11:02.001Z,37.75
2019-02-21T12:13:08.218Z,38.33
2019-02-21T12:15:16.229Z,38.83
2019-02-21T12:19:28.831Z,37.67
2019-02-21T12:21:35.066Z,41.58
2019-02-21T12:23:41.317Z,39.70
2019-02-21T12:25:47.635Z,40.98
2019-02-21T12:27:53.798Z,40.00
2019-02-21T12:30:00.037Z,36.15
2019-02-21T12:32:06.282Z,56.58
2019-02-21T12:34:12.517Z,46.95
2019-02-21T12:36:18.679Z,38.13
2019-02-21T12:38:25.018Z,38.63
2019-02-21T12:40:31.337Z,37.65
2019-02-21T12:42:37.482Z,38.23
2019-02-21T12:44:43.754Z,38.28
2019-02-21T12:46:49.910Z,35.58
2019-02-21T12:48:56.074Z,34.08
2019-02-21T12:51:02.340Z,36.30
2019-02-21T12:53:08.500Z,33.10
2019-02-21T12:55:26.554Z,33.50
2019-02-21T12:57:23.161Z,35.65
2019-02-21T12:59:29.325Z,37.05
2019-02-21T13:01:35.501Z,32.98
2019-02-21T13:03:41.770Z,32.00
2019-02-21T13:05:47.927Z,34.23
2019-02-21T13:07:54.291Z,32.95
2019-02-21T13:10:00.553Z,29.63
2019-02-21T13:12:06.841Z,27.60
2019-02-21T13:14:13.249Z,26.73
2019-02-21T13:16:19.481Z,28.45
2019-02-21T13:18:25.774Z,31.70
2019-02-21T13:20:32.137Z,30.82
2019-02-21T13:22:38.330Z,27.25
2019-02-21T13:24:44.557Z,27.17
2019-02-21T13:26:51.722Z,24.50
2019-02-21T13:28:57.907Z,21.45
2019-02-21T13:31:04.936Z,23.38
2019-02-21T13:33:11.178Z,26.40
2019-02-21T13:35:17.443Z,25.90
2019-02-21T13:37:28.676Z,30.62
2019-02-21T13:39:31.461Z,27.10
2019-02-21T13:41:37.849Z,27.73
2019-02-21T13:43:44.178Z,28.77
2019-02-21T13:45:50.336Z,26.02
2019-02-21T13:47:56.529Z,24.12
2019-02-21T13:50:02.885Z,23.40
2019-02-21T13:52:09.160Z,21.42
2019-02-21T13:54:15.428Z,22.45
2019-02-21T13:56:21.584Z,23.83
2019-02-21T13:58:28.945Z,21.50
2019-02-21T14:00:35.134Z,23.57
2019-02-21T14:02:41.356Z,21.97
2019-02-21T14:04:47.600Z,22.85
2019-02-21T14:06:53.805Z,22.98
2019-02-21T14:08:59.983Z,21.55
2019-02-21T14:11:06.203Z,25.43
2019-02-21T14:13:12.458Z,20.08
2019-02-21T14:15:26.914Z,20.62
2019-02-21T14:17:33.095Z,20.15
2019-02-21T14:19:39.342Z,21.85
2019-02-21T14:21:45.579Z,18.65
2019-02-21T14:23:51.814Z,19.90
2019-02-21T14:25:58.004Z,20.27
2019-02-21T14:28:04.239Z,18.50
2019-02-21T14:30:19.992Z,20.57
2019-02-21T14:32:26.217Z,22.30
2019-02-21T14:34:32.470Z,21.50
2019-02-21T14:36:38.692Z,26.97
2019-02-21T14:38:45.609Z,21.90
2019-02-21T14:40:51.773Z,22.73
2019-02-21T14:42:58.095Z,21.75
2019-02-21T14:45:06.226Z,24.52
2019-02-21T14:47:12.534Z,29.23
2019-02-21T14:49:18.759Z,23.00
2019-02-21T14:51:25.196Z,25.68
2019-02-21T14:53:32.490Z,27.50
2019-02-21T14:55:38.659Z,27.07
2019-02-21T14:57:46.563Z,28.83
2019-02-21T14:59:52.746Z,22.93
2019-02-21T15:01:58.985Z,32.38
2019-02-21T15:04:06.342Z,22.98
2019-02-21T15:06:12.496Z,23.65
2019-02-21T15:08:22.067Z,26.23
2019-02-21T15:10:28.658Z,24.43
2019-02-21T15:12:35.601Z,24.20
2019-02-21T15:14:41.968Z,25.77
2019-02-21T15:16:48.168Z,21.05
2019-02-21T15:18:55.349Z,18.98
2019-02-21T15:21:01.882Z,16.82
2019-02-21T15:23:08.074Z,20.80
2019-02-21T15:25:15.478Z,17.10
2019-02-21T15:27:23.459Z,15.28
2019-02-21T15:29:29.941Z,15.05
2019-02-21T15:31:36.173Z,13.58
2019-02-21T15:33:42.454Z,13.90
2019-02-21T15:35:48.706Z,13.40
2019-02-21T15:37:55.012Z,11.25
2019-02-21T15:40:01.369Z,9.30
2019-02-21T15:42:07.754Z,9.75
2019-02-21T15:44:13.968Z,13.25
2019-02-21T15:46:20.345Z,11.05
2019-02-21T15:48:26.620Z,12.45
2019-02-21T15:50:32.942Z,10.48
2019-02-21T15:52:39.232Z,15.30
2019-02-21T15:54:45.550Z,8.73
2019-02-21T15:56:51.766Z,11.33
2019-02-21T15:58:57.995Z,10.08
2019-02-21T16:01:04.319Z,13.98
2019-02-21T16:03:10.640Z,11.65
2019-02-21T16:05:18.436Z,11.30
2019-02-21T16:07:24.757Z,13.00
2019-02-21T16:09:31.053Z,11.08
2019-02-21T16:11:37.269Z,12.55
2019-02-21T16:13:43.520Z,13.35
2019-02-21T16:15:49.943Z,14.85
2019-02-21T16:17:56.181Z,15.43
2019-02-21T16:20:02.606Z,16.40
2019-02-21T16:22:08.877Z,17.00
2019-02-21T16:24:15.111Z,15.98
2019-02-21T16:26:21.299Z,15.30
2019-02-21T16:28:27.533Z,18.05
2019-02-21T16:30:35.054Z,19.67
2019-02-21T16:32:41.464Z,24.85
2019-02-21T16:34:49.144Z,25.12
2019-02-21T16:37:02.530Z,24.00
2019-02-21T16:41:14.152Z,22.32
2019-02-21T16:43:20.375Z,23.60
2019-02-21T16:45:26.948Z,23.83
2019-02-21T16:47:33.231Z,26.40
2019-02-21T16:49:39.564Z,24.15
2019-02-21T16:51:45.799Z,26.87
2019-02-21T16:53:52.259Z,27.10
2019-02-21T16:55:58.485Z,28.02
2019-02-21T16:58:04.884Z,24.85
2019-02-21T17:00:20.769Z,29.45
2019-02-21T17:02:28.181Z,27.25
2019-02-21T17:04:36.733Z,25.17
2019-02-21T17:06:43.033Z,24.65
2019-02-21T17:08:49.401Z,22.62
2019-02-21T17:10:55.717Z,24.70
2019-02-21T17:13:02.044Z,23.70
2019-02-21T17:15:12.051Z,22.00
2019-02-21T17:17:18.420Z,21.73
2019-02-21T17:19:24.577Z,20.90
2019-02-21T17:21:30.811Z,20.23
2019-02-21T17:23:37.232Z,19.85
2019-02-21T17:25:43.461Z,22.20
2019-02-21T17:27:51.124Z,19.85
2019-02-21T17:29:59.289Z,22.13
2019-02-21T17:32:05.611Z,24.75
2019-02-21T17:34:11.906Z,18.57
2019-02-21T17:36:20.030Z,19.60
2019-02-21T17:38:26.206Z,22.62
2019-02-21T17:40:32.425Z,20.88
2019-02-21T17:42:38.766Z,20.90
2019-02-21T17:44:44.930Z,21.37
2019-02-21T17:46:51.236Z,23.57
2019-02-21T17:48:57.425Z,25.20
2019-02-21T17:51:03.594Z,21.85
2019-02-21T17:53:09.810Z,21.12
2019-02-21T17:55:17.074Z,23.65
2019-02-21T17:57:23.372Z,20.88
2019-02-21T17:59:29.605Z,21.87
2019-02-21T18:01:35.854Z,22.67
2019-02-21T18:03:43.617Z,24.87
2019-02-21T18:05:50.984Z,22.87
2019-02-21T18:07:57.366Z,21.17
2019-02-21T18:10:08.718Z,25.25
2019-02-21T18:12:15.710Z,26.68
2019-02-21T18:14:21.980Z,23.92
2019-02-21T18:16:28.388Z,27.32
2019-02-21T18:18:34.613Z,23.42
2019-02-21T18:20:40.871Z,25.50
2019-02-21T18:22:47.253Z,28.90
2019-02-21T18:24:53.528Z,28.30
2019-02-21T18:27:00.993Z,25.40
2019-02-21T18:29:07.284Z,23.87
2019-02-21T18:31:13.568Z,27.30
2019-02-21T18:33:19.830Z,26.10
2019-02-21T18:35:26.124Z,26.70
2019-02-21T18:37:34.220Z,28.98
2019-02-21T18:39:40.539Z,27.82
2019-02-21T18:41:46.691Z,34.20
2019-02-21T18:43:53.029Z,35.05
2019-02-21T18:45:59.511Z,33.78
2019-02-21T18:48:05.841Z,43.58
2019-02-21T18:50:14.198Z,45.30
2019-02-21T18:52:20.597Z,30.80
2019-02-21T18:54:26.968Z,32.40
2019-02-21T18:56:34.078Z,35.98
2019-02-21T18:58:41.884Z,33.50
2019-02-21T19:00:50.565Z,33.02
2019-02-21T19:03:01.146Z,28.52
2019-02-21T19:05:08.650Z,27.85
2019-02-21T19:07:15.027Z,29.20
2019-02-21T19:09:22.907Z,27.42
2019-02-21T19:11:29.173Z,24.70
2019-02-21T19:13:37.424Z,25.90
2019-02-21T19:15:43.727Z,22.85
2019-02-21T19:17:50.104Z,23.55
2019-02-21T19:19:57.338Z,19.50
2019-02-21T19:22:03.496Z,17.37
2019-02-21T19:24:09.805Z,20.08
2019-02-21T19:26:16.168Z,24.55
2019-02-21T19:28:23.995Z,19.12
2019-02-21T19:30:38.711Z,17.62
2019-02-21T19:32:45.088Z,20.77
2019-02-21T19:34:52.401Z,19.92
2019-02-21T19:36:58.836Z,20.12
2019-02-21T19:39:06.090Z,17.75
2019-02-21T19:41:14.656Z,20.52
2019-02-21T19:43:22.225Z,15.45
2019-02-21T19:45:31.338Z,17.75
2019-02-21T19:49:45.296Z,14.20
2019-02-21T19:51:55.040Z,15.93
2019-02-21T19:54:04.169Z,14.47
2019-02-21T19:58:19.614Z,17.15
2019-02-21T20:00:29.668Z,16.27
2019-02-21T20:02:36.005Z,13.25
2019-02-21T20:04:42.369Z,14.50
2019-02-21T20:06:52.010Z,15.85
2019-02-21T20:08:59.808Z,13.10
2019-02-21T20:11:06.102Z,15.60
2019-02-21T20:13:13.955Z,13.55
2019-02-21T20:15:20.259Z,12.58
2019-02-21T20:17:28.206Z,16.27
2019-02-21T20:19:35.958Z,13.22
2019-02-21T20:21:46.380Z,12.55
2019-02-21T20:23:54.514Z,15.05
2019-02-21T20:26:04.248Z,15.83
2019-02-21T20:28:10.531Z,12.80
2019-02-21T20:30:19.662Z,13.15
2019-02-21T20:32:28.245Z,12.68
2019-02-21T20:34:34.773Z,14.13
2019-02-21T20:36:50.695Z,13.30
2019-02-21T20:38:50.119Z,13.03
2019-02-21T20:40:56.591Z,15.18
2019-02-21T20:43:05.324Z,10.78
2019-02-21T20:45:13.450Z,11.73
2019-02-21T20:47:21.491Z,14.95
2019-02-21T20:49:28.641Z,15.03
2019-02-21T20:51:34.949Z,14.28
2019-02-21T20:53:45.862Z,12.33
2019-02-21T20:55:52.230Z,10.58
2019-02-21T20:57:58.681Z,14.70
2019-02-21T21:00:07.027Z,13.40
2019-02-21T21:02:19.121Z,13.55
2019-02-21T21:04:26.500Z,14.43
2019-02-21T21:06:34.620Z,9.85
2019-02-21T21:08:44.336Z,13.03
2019-02-21T21:10:51.705Z,12.47
2019-02-21T21:12:57.963Z,14.28
2019-02-21T21:15:10.406Z,10.25
2019-02-21T21:17:18.989Z,11.10
2019-02-21T21:19:25.375Z,8.33
2019-02-21T21:21:31.657Z,10.82
2019-02-21T21:23:37.954Z,9.15
2019-02-21T21:25:44.344Z,11.45
2019-02-21T21:27:52.121Z,9.85
2019-02-21T21:29:58.481Z,12.95
2019-02-21T21:32:04.928Z,10.20
2019-02-21T21:34:11.142Z,13.48
2019-02-21T21:36:17.569Z,11.05
2019-02-21T21:38:24.525Z,11.80
2019-02-21T21:40:30.774Z,11.60
2019-02-21T21:42:37.087Z,12.85
2019-02-21T21:44:44.875Z,11.00
2019-02-21T21:46:51.179Z,11.05
2019-02-21T21:48:58.640Z,11.85
2019-02-21T21:51:04.886Z,9.75
2019-02-21T21:53:11.124Z,13.43
2019-02-21T21:55:17.428Z,11.60
2019-02-21T21:57:23.829Z,10.95
2019-02-21T21:59:31.389Z,13.35
2019-02-21T22:01:37.547Z,11.93
2019-02-21T22:03:43.932Z,9.58
2019-02-21T22:05:50.241Z,12.98
2019-02-21T22:07:56.471Z,12.53
2019-02-21T22:10:02.650Z,7.97
2019-02-21T22:12:09.040Z,10.65
2019-02-21T22:14:15.201Z,8.43
2019-02-21T22:16:21.384Z,10.48
2019-02-21T22:18:27.673Z,7.67
2019-02-21T22:20:33.898Z,10.48
2019-02-21T22:22:40.157Z,10.35
2019-02-21T22:24:46.375Z,11.08
2019-02-21T22:26:52.525Z,9.30
2019-02-21T22:28:58.714Z,10.23
2019-02-21T22:31:04.889Z,9.90
2019-02-21T22:33:11.133Z,9.58
2019-02-21T22:35:17.406Z,8.10
2019-02-21T22:37:23.558Z,5.30
2019-02-21T22:39:29.841Z,4.50
2019-02-21T22:41:36.045Z,6.30
2019-02-21T22:43:44.498Z,6.78
2019-02-21T22:45:50.776Z,4.53
2019-02-21T22:47:56.989Z,4.53
2019-02-21T22:50:03.380Z,3.40
2019-02-21T22:52:09.545Z,3.85
2019-02-21T22:54:15.775Z,3.95
2019-02-21T22:56:21.995Z,4.35
2019-02-21T22:58:28.225Z,4.85
2019-02-21T23:00:47.672Z,3.98
2019-02-21T23:02:55.535Z,6.62
2019-02-21T23:05:12.268Z,4.92
2019-02-21T23:07:23.349Z,5.58
2019-02-21T23:09:29.674Z,7.37
2019-02-21T23:11:35.817Z,6.12
2019-02-21T23:13:43.073Z,6.05
2019-02-21T23:15:49.455Z,4.25
2019-02-21T23:17:55.611Z,7.17
2019-02-21T23:20:01.831Z,7.95
2019-02-21T23:22:07.984Z,6.25
2019-02-21T23:24:14.304Z,4.60
2019-02-21T23:26:20.469Z,4.25
2019-02-21T23:28:26.704Z,5.85
2019-02-21T23:30:32.948Z,5.83
2019-02-21T23:32:39.153Z,5.67
2019-02-21T23:34:46.373Z,5.03
2019-02-21T23:36:52.597Z,3.55
2019-02-21T23:38:58.781Z,5.60
2019-02-21T23:41:05.014Z,5.70
2019-02-21T23:43:11.236Z,3.25
2019-02-21T23:45:17.536Z,4.80
2019-02-21T23:47:23.841Z,4.35
2019-02-21T23:49:30.085Z,4.35
2019-02-21T23:51:36.326Z,4.35
2019-02-21T23:53:44.130Z,5.87
2019-02-21T23:55:50.368Z,8.48
2019-02-21T23:57:56.793Z,5.22
